Time;durP1;ratioP1;P1;durP2;ratioP2;P2;SDS_P1;SDS_P2;PMS_P1;PMS_P2;Temp;Humidity;BMP_temperature;BMP_pressure;BME280_temperature;BME280_humidity;BME280_pressure;Samples;Min_cycle;Max_cycle;Signal;HPM_P1;HPM_P2
2023/03/15 00:01:48;;;;;;;3.67;0.68;;;2.60;99.90;;;;;;7404743;19;19915;-77
2023/03/15 00:04:17;;;;;;;3.30;0.35;;;2.30;99.90;;;;;;7403619;19;19918;-77
2023/03/15 00:06:46;;;;;;;4.60;0.93;;;;;;;;;;7402267;19;19918;-77
2023/03/15 00:09:15;;;;;;;2.58;0.63;;;1.50;99.90;;;;;;7404187;19;20304;-77
2023/03/15 00:11:48;;;;;;;4.38;0.60;;;1.50;99.90;;;;;;7404390;19;19926;-77
2023/03/15 00:14:17;;;;;;;4.97;1.25;;;1.30;99.90;;;;;;7402333;19;19943;-77
2023/03/15 00:16:46;;;;;;;1.48;0.63;;;2.10;99.90;;;;;;7401515;19;19911;-77
2023/03/15 00:19:15;;;;;;;1.52;0.50;;;2.30;99.90;;;;;;7401340;19;19983;-77
2023/03/15 00:21:44;;;;;;;1.52;0.40;;;;;;;;;;7401871;19;20341;-77
2023/03/15 00:24:16;;;;;;;3.63;0.70;;;1.60;99.90;;;;;;7405596;19;19918;-77
2023/03/15 00:26:47;;;;;;;3.55;0.80;;;1.30;99.90;;;;;;7401672;19;20724;-77
2023/03/15 00:29:22;;;;;;;2.22;0.60;;;;;;;;;;7403070;19;19947;-77
2023/03/15 00:31:51;;;;;;;3.72;0.68;;;2.40;99.90;;;;;;7403048;19;20005;-77
2023/03/15 00:34:27;;;;;;;3.13;0.57;;;2.80;99.90;;;;;;7401595;19;19915;-77
2023/03/15 00:36:56;;;;;;;2.17;0.50;;;;;;;;;;7402334;19;19951;-77
2023/03/15 00:39:25;;;;;;;3.35;0.68;;;1.90;99.90;;;;;;7404608;19;19922;-77
2023/03/15 00:41:57;;;;;;;3.05;0.20;;;1.20;99.90;;;;;;7403236;19;20321;-77
2023/03/15 00:44:26;;;;;;;4.20;0.55;;;1.60;99.90;;;;;;7405707;19;19959;-77
2023/03/15 00:47:16;;;;;;;;;;;2.10;99.90;;;;;;7401156;19;19986;-77
2023/03/15 00:49:45;;;;;;;5.10;0.63;;;1.20;99.90;;;;;;7404773;19;19919;-78
2023/03/15 00:52:14;;;;;;;4.93;0.75;;;1.30;99.90;;;;;;7402898;19;20359;-77
2023/03/15 00:54:45;;;;;;;2.85;0.38;;;;;;;;;;7400143;19;19999;-77
2023/03/15 00:57:17;;;;;;;6.25;0.68;;;1.90;99.90;;;;;;7403838;19;20014;-77
2023/03/15 00:59:46;;;;;;;4.32;0.77;;;1.50;99.90;;;;;;7404536;19;19914;-77
2023/03/15 01:02:15;;;;;;;4.55;1.05;;;1.10;99.90;;;;;;7403373;19;19945;-78
2023/03/15 01:04:44;;;;;;;4.10;0.60;;;2.50;99.90;;;;;;7400312;19;19918;-77
2023/03/15 01:07:13;;;;;;;7.45;0.73;;;1.90;99.90;;;;;;7403180;19;19940;-77
2023/03/15 01:09:43;;;;;;;3.97;0.75;;;2.10;99.90;;;;;;7404472;19;19930;-77
2023/03/15 01:12:13;;;;;;;3.25;0.55;;;1.60;99.90;;;;;;7402870;19;19918;-77
2023/03/15 01:14:44;;;;;;;1.15;0.60;;;1.60;99.90;;;;;;7404363;19;19981;-78
2023/03/15 01:17:13;;;;;;;5.18;1.00;;;1.00;99.90;;;;;;7400489;19;19915;-77
2023/03/15 01:19:42;;;;;;;2.80;0.68;;;2.30;99.90;;;;;;7399174;19;20373;-77
2023/03/15 01:22:11;;;;;;;4.32;0.80;;;1.10;99.90;;;;;;7400566;19;19954;-77
2023/03/15 01:24:40;;;;;;;2.60;1.23;;;1.30;99.90;;;;;;7400445;19;19919;-78
2023/03/15 01:27:09;;;;;;;4.65;1.05;;;1.80;99.90;;;;;;7405467;19;19928;-77
2023/03/15 01:29:38;;;;;;;3.95;0.60;;;1.00;99.90;;;;;;7403981;19;19915;-78
2023/03/15 01:32:10;;;;;;;3.72;0.52;;;1.70;99.90;;;;;;7403482;19;19915;-76
2023/03/15 01:34:39;;;;;;;3.42;0.70;;;1.30;99.90;;;;;;7400707;19;19918;-77
2023/03/15 01:37:09;;;;;;;3.15;0.60;;;2.00;99.90;;;;;;7400174;19;19918;-77
2023/03/15 01:39:37;;;;;;;5.15;1.23;;;1.80;99.90;;;;;;7401537;19;20323;-77
2023/03/15 01:42:10;;;;;;;2.15;0.45;;;1.50;99.90;;;;;;7400305;19;19915;-78
2023/03/15 01:44:52;;;;;;;4.25;0.60;;;2.40;99.90;;;;;;7400051;19;19936;-77
2023/03/15 01:47:26;;;;;;;3.65;0.60;;;1.40;99.90;;;;;;7399686;19;19922;-77
2023/03/15 01:50:03;;;;;;;5.10;0.60;;;2.00;99.90;;;;;;7399239;19;20379;-78
2023/03/15 01:52:35;;;;;;;4.57;0.60;;;1.80;99.90;;;;;;7399463;19;19919;-77
2023/03/15 01:55:11;;;;;;;4.78;0.70;;;1.00;99.90;;;;;;7402504;19;19927;-77
2023/03/15 01:57:45;;;;;;;8.13;0.90;;;1.70;99.90;;;;;;7399180;19;19929;-77
2023/03/15 02:00:16;;;;;;;2.83;0.70;;;2.10;99.90;;;;;;7398497;19;19922;-77
2023/03/15 02:02:52;;;;;;;1.85;0.40;;;1.90;99.90;;;;;;7398917;19;19918;-78
2023/03/15 02:05:35;;;;;;;6.07;0.70;;;1.00;99.90;;;;;;7398854;19;19982;-77
2023/03/15 02:08:07;;;;;;;1.70;0.73;;;1.90;99.90;;;;;;7399369;19;20321;-77
2023/03/15 02:10:39;;;;;;;2.60;0.40;;;2.70;99.90;;;;;;7399181;19;20392;-77
2023/03/15 02:13:10;;;;;;;3.45;0.73;;;1.70;99.90;;;;;;7399260;19;20513;-77
2023/03/15 02:15:45;;;;;;;3.35;0.52;;;1.80;99.90;;;;;;7406986;19;19918;-78
2023/03/15 02:18:18;;;;;;;2.35;0.63;;;1.10;99.90;;;;;;7404846;19;19914;-78
2023/03/15 02:20:55;;;;;;;6.07;0.88;;;1.20;99.90;;;;;;7405439;19;20460;-78
2023/03/15 02:23:30;;;;;;;4.70;0.68;;;1.00;99.90;;;;;;7405515;19;19918;-78
2023/03/15 02:26:09;;;;;;;3.20;0.45;;;0.80;99.90;;;;;;7408886;19;19922;-77
2023/03/15 02:28:41;;;;;;;7.13;0.75;;;0.90;99.90;;;;;;7409188;19;19915;-77
2023/03/15 02:31:10;;;;;;;3.40;0.40;;;1.10;99.90;;;;;;7405820;19;19914;-77
2023/03/15 02:33:45;;;;;;;1.95;0.60;;;1.80;99.90;;;;;;7409745;19;19914;-77
2023/03/15 02:36:19;;;;;;;8.00;1.27;;;2.10;99.90;;;;;;7407563;19;19946;-77
2023/03/15 02:38:49;;;;;;;1.88;0.32;;;1.10;99.90;;;;;;7408200;19;19921;-78
2023/03/15 02:41:22;;;;;;;1.45;0.50;;;1.60;99.90;;;;;;7404292;19;20264;-78
2023/03/15 02:44:03;;;;;;;3.58;0.40;;;1.70;99.90;;;;;;7407188;19;19926;-78
2023/03/15 02:46:40;;;;;;;6.30;0.80;;;0.90;99.90;;;;;;7407617;19;19920;-78
2023/03/15 02:49:11;;;;;;;3.13;0.50;;;2.40;99.90;;;;;;7408220;19;19919;-78
2023/03/15 02:51:41;;;;;;;6.50;0.47;;;2.10;99.90;;;;;;7404715;19;19922;-77
2023/03/15 02:54:11;;;;;;;6.63;0.85;;;2.40;99.90;;;;;;7404986;19;19922;-77
2023/03/15 02:56:40;;;;;;;3.13;0.60;;;;;;;;;;7404342;19;19922;-78
2023/03/15 02:59:12;;;;;;;4.68;0.68;;;2.30;99.90;;;;;;7403500;19;19922;-78
2023/03/15 03:01:44;;;;;;;2.53;0.60;;;1.00;99.90;;;;;;7403725;19;20329;-76
2023/03/15 03:04:13;;;;;;;5.72;0.52;;;1.50;99.90;;;;;;7404416;19;20568;-76
2023/03/15 03:06:43;;;;;;;3.33;0.65;;;1.80;99.90;;;;;;7404663;19;19929;-77
2023/03/15 03:09:13;;;;;;;6.93;1.25;;;1.10;99.90;;;;;;7404110;19;19986;-78
2023/03/15 03:11:42;;;;;;;4.88;0.80;;;1.20;99.90;;;;;;7404017;19;19959;-78
2023/03/15 03:14:15;;;;;;;5.10;0.60;;;2.50;99.90;;;;;;7404760;19;19918;-76
2023/03/15 03:16:44;;;;;;;2.70;0.30;;;1.20;99.90;;;;;;7402960;19;19926;-76
2023/03/15 03:19:14;;;;;;;4.65;0.63;;;1.80;99.90;;;;;;7402356;19;19918;-75
2023/03/15 03:21:44;;;;;;;3.97;0.50;;;2.20;99.90;;;;;;7404811;19;19927;-76
2023/03/15 03:24:16;;;;;;;5.03;0.65;;;1.80;99.90;;;;;;7407906;19;19911;-77
2023/03/15 03:26:46;;;;;;;5.50;1.20;;;1.90;99.90;;;;;;7402091;19;19914;-77
2023/03/15 03:29:18;;;;;;;8.10;0.80;;;2.50;99.90;;;;;;7403547;19;19907;-76
2023/03/15 03:31:47;;;;;;;5.28;0.65;;;2.10;99.90;;;;;;7405417;19;19923;-77
2023/03/15 03:34:16;;;;;;;3.05;0.73;;;1.10;99.90;;;;;;7403255;19;20292;-76
2023/03/15 03:36:45;;;;;;;4.38;0.60;;;1.60;99.90;;;;;;7405515;19;20265;-76
2023/03/15 03:39:14;;;;;;;6.68;1.15;;;1.70;99.90;;;;;;7401509;19;19921;-76
2023/03/15 03:41:43;;;;;;;5.25;1.02;;;1.80;99.90;;;;;;7403120;19;19911;-76
2023/03/15 03:44:12;;;;;;;4.55;0.73;;;2.10;99.90;;;;;;7402906;19;19943;-77
2023/03/15 03:46:44;;;;;;;5.00;0.70;;;1.60;99.90;;;;;;7402608;19;19942;-76
2023/03/15 03:49:13;;;;;;;2.63;0.70;;;2.20;99.90;;;;;;7402816;19;19925;-76
2023/03/15 03:51:42;;;;;;;8.10;0.90;;;1.90;99.90;;;;;;7406226;19;19918;-76
2023/03/15 03:54:11;;;;;;;10.07;1.10;;;0.90;99.90;;;;;;7400703;19;19930;-77
2023/03/15 03:56:40;;;;;;;3.97;0.70;;;2.10;99.90;;;;;;7407248;19;20359;-77
2023/03/15 03:59:09;;;;;;;7.20;0.70;;;1.10;99.90;;;;;;7401749;19;19941;-76
2023/03/15 04:01:38;;;;;;;5.22;0.63;;;1.60;99.90;;;;;;7405631;19;20470;-76
2023/03/15 04:04:12;;;;;;;8.05;0.88;;;0.70;99.90;;;;;;7402252;19;19914;-76
2023/03/15 04:06:44;;;;;;;4.32;0.80;;;;;;;;;;7405302;19;19922;-76
2023/03/15 04:09:14;;;;;;;5.45;0.85;;;1.20;99.90;;;;;;7403097;19;19942;-76
2023/03/15 04:11:44;;;;;;;5.47;1.20;;;1.70;99.90;;;;;;7402692;19;19936;-76
2023/03/15 04:14:15;;;;;;;5.40;0.75;;;1.00;99.90;;;;;;7402359;19;19915;-76
2023/03/15 04:16:44;;;;;;;3.08;0.82;;;0.70;99.90;;;;;;7402154;19;19921;-76
2023/03/15 04:19:16;;;;;;;2.92;0.73;;;2.20;99.90;;;;;;7403658;19;19919;-76
2023/03/15 04:21:48;;;;;;;7.28;1.20;;;;;;;;;;7402550;19;19910;-76
2023/03/15 04:24:22;;;;;;;5.80;0.68;;;2.20;99.90;;;;;;7401872;19;20618;-77
2023/03/15 04:26:56;;;;;;;6.38;0.93;;;0.80;99.90;;;;;;7401877;19;20340;-76
2023/03/15 04:29:25;;;;;;;3.13;0.60;;;2.10;99.90;;;;;;7402187;19;19922;-76
2023/03/15 04:32:00;;;;;;;2.97;0.68;;;;;;;;;;7401157;19;19926;-76
2023/03/15 04:34:33;;;;;;;3.90;1.00;;;2.30;99.90;;;;;;7402908;19;19990;-76
2023/03/15 04:37:02;;;;;;;3.20;0.63;;;2.20;99.90;;;;;;7401771;19;19926;-76
2023/03/15 04:39:31;;;;;;;3.67;0.80;;;;;;;;;;7401498;19;19918;-76
2023/03/15 04:42:00;;;;;;;2.22;0.68;;;1.30;99.90;;;;;;7400201;19;19922;-76
2023/03/15 04:44:29;;;;;;;7.28;1.20;;;2.30;99.90;;;;;;7401345;19;19915;-76
2023/03/15 04:46:58;;;;;;;6.68;0.60;;;2.00;99.90;;;;;;7401121;19;20375;-76
2023/03/15 04:49:28;;;;;;;3.67;1.00;;;1.40;99.90;;;;;;7399603;19;19974;-76
2023/03/15 04:51:59;;;;;;;6.43;1.33;;;1.20;99.90;;;;;;7404717;19;20348;-76
2023/03/15 04:54:29;;;;;;;2.75;0.80;;;1.70;99.90;;;;;;7400862;19;19918;-76
2023/03/15 04:56:58;;;;;;;8.68;0.85;;;;;;;;;;7401477;19;20001;-76
2023/03/15 04:59:27;;;;;;;6.75;1.40;;;;;;;;;;7399700;19;19922;-78
2023/03/15 05:01:56;;;;;;;6.28;1.15;;;1.50;99.90;;;;;;7405234;19;19923;-76
2023/03/15 05:04:25;;;;;;;6.65;1.00;;;;;;;;;;7403998;19;19922;-76
2023/03/15 05:06:54;;;;;;;8.57;1.00;;;1.00;99.90;;;;;;7401041;19;19922;-76
2023/03/15 05:09:26;;;;;;;3.53;0.90;;;1.50;99.90;;;;;;7401786;19;19926;-76
2023/03/15 05:11:55;;;;;;;4.93;1.13;;;;;;;;;;7401057;19;19921;-76
2023/03/15 05:14:25;;;;;;;4.80;0.80;;;1.40;99.90;;;;;;7400901;19;19922;-76
2023/03/15 05:16:57;;;;;;;4.38;0.95;;;0.90;99.90;;;;;;7399713;19;19934;-76
2023/03/15 05:19:26;;;;;;;3.17;1.00;;;0.80;99.90;;;;;;7399828;19;20006;-76
2023/03/15 05:21:56;;;;;;;3.67;0.65;;;1.30;99.90;;;;;;7400237;19;19926;-76
2023/03/15 05:24:28;;;;;;;5.95;1.10;;;1.50;99.90;;;;;;7402097;19;20352;-76
2023/03/15 05:26:57;;;;;;;5.95;0.65;;;;;;;;;;7400224;19;20026;-76
2023/03/15 05:29:26;;;;;;;4.30;0.70;;;0.60;99.90;;;;;;7403162;19;19926;-76
2023/03/15 05:31:55;;;;;;;1.55;0.60;;;0.60;99.90;;;;;;7399582;19;19918;-76
2023/03/15 05:34:25;;;;;;;3.95;0.45;;;2.10;99.90;;;;;;7399291;19;19934;-76
2023/03/15 05:36:58;;;;;;;3.25;0.50;;;0.50;99.90;;;;;;7400216;19;19974;-76
2023/03/15 05:39:33;;;;;;;2.15;0.73;;;0.60;99.90;;;;;;7399537;19;20349;-75
2023/03/15 05:42:03;;;;;;;3.22;0.50;;;1.20;99.90;;;;;;7401791;19;19978;-76
2023/03/15 05:44:32;;;;;;;4.95;0.60;;;0.40;99.90;;;;;;7399662;19;19910;-76
2023/03/15 05:47:01;;;;;;;10.95;1.75;;;1.00;99.90;;;;;;7399748;19;20324;-76
2023/03/15 05:49:30;;;;;;;9.43;1.65;;;0.40;99.90;;;;;;7404916;19;19923;-75
2023/03/15 05:51:59;;;;;;;3.08;0.60;;;0.40;99.90;;;;;;7406183;19;19919;-76
2023/03/15 05:54:30;;;;;;;7.95;0.70;;;0.50;99.90;;;;;;7405169;19;19946;-76
2023/03/15 05:56:59;;;;;;;2.92;0.73;;;1.00;99.90;;;;;;7406141;19;20269;-77
2023/03/15 05:59:29;;;;;;;5.93;0.85;;;0.30;99.90;;;;;;7405731;19;19919;-76
2023/03/15 06:01:58;;;;;;;4.22;0.80;;;0.90;99.90;;;;;;7405230;19;19924;-76
2023/03/15 06:04:42;;;;;;;4.43;0.80;;;1.70;99.90;;;;;;7405542;19;19978;-77
2023/03/15 06:07:12;;;;;;;2.55;0.52;;;;;;;;;;7405524;19;19950;-77
2023/03/15 06:09:43;;;;;;;3.65;0.57;;;0.90;99.90;;;;;;7405935;19;19910;-77
2023/03/15 06:12:14;;;;;;;5.25;0.88;;;0.90;99.90;;;;;;7406044;19;19939;-77
2023/03/15 06:14:44;;;;;;;5.90;0.70;;;1.20;99.90;;;;;;7405562;19;19994;-77
2023/03/15 06:17:13;;;;;;;3.33;0.68;;;1.50;99.90;;;;;;7407441;19;20284;-77
2023/03/15 06:19:42;;;;;;;2.05;0.88;;;1.40;99.90;;;;;;7404243;19;19915;-77
2023/03/15 06:22:11;;;;;;;5.53;0.60;;;0.50;99.90;;;;;;7407246;19;20341;-77
2023/03/15 06:24:43;;;;;;;5.75;0.85;;;1.60;99.90;;;;;;7407895;19;19918;-77
2023/03/15 06:27:12;;;;;;;8.55;0.90;;;1.00;99.90;;;;;;7405370;19;19914;-78
2023/03/15 06:29:41;;;;;;;2.50;0.52;;;;;;;;;;7409191;19;20390;-77
2023/03/15 06:32:11;;;;;;;6.88;1.00;;;1.50;99.90;;;;;;7406692;19;19928;-77
2023/03/15 06:34:40;;;;;;;3.22;0.60;;;0.30;99.90;;;;;;7409458;19;19922;-78
2023/03/15 06:37:12;;;;;;;1.60;0.45;;;1.00;99.90;;;;;;7407236;19;19923;-77
2023/03/15 06:39:44;;;;;;;4.72;0.63;;;0.30;99.90;;;;;;7404523;19;19915;-77
2023/03/15 06:42:14;;;;;;;4.60;0.73;;;0.40;99.90;;;;;;7405861;19;20258;-77
2023/03/15 06:44:43;;;;;;;3.85;0.75;;;;;;;;;;7404746;19;19910;-77
2023/03/15 06:47:13;;;;;;;0.93;0.40;;;1.90;99.90;;;;;;7404988;19;19978;-77
2023/03/15 06:49:42;;;;;;;5.78;0.70;;;1.60;99.90;;;;;;7408198;19;20337;-76
2023/03/15 06:52:11;;;;;;;3.25;0.80;;;1.90;99.90;;;;;;7408268;19;19931;-77
2023/03/15 06:54:43;;;;;;;6.18;0.70;;;0.40;99.90;;;;;;7402837;19;19921;-77
2023/03/15 06:57:15;;;;;;;4.65;0.70;;;0.40;99.90;;;;;;7409132;19;19919;-77
2023/03/15 06:59:44;;;;;;;1.10;0.50;;;2.00;99.90;;;;;;7403255;19;19918;-77
2023/03/15 07:02:17;;;;;;;3.17;1.67;;;1.80;99.90;;;;;;7405687;19;19915;-77
2023/03/15 07:04:46;;;;;;;3.95;0.65;;;1.60;99.90;;;;;;7404344;19;20321;-78
2023/03/15 07:07:16;;;;;;;8.40;1.50;;;0.50;99.90;;;;;;7404859;19;19922;-77
2023/03/15 07:09:51;;;;;;;2.40;0.95;;;1.80;99.90;;;;;;7404700;19;19914;-78
2023/03/15 07:12:20;;;;;;;1.48;0.50;;;1.80;99.90;;;;;;7404194;19;19926;-78
2023/03/15 07:14:56;;;;;;;5.82;0.80;;;1.70;99.90;;;;;;7405697;19;19936;-78
2023/03/15 07:17:26;;;;;;;2.85;0.70;;;1.90;99.90;;;;;;7405091;19;19925;-78
2023/03/15 07:19:55;;;;;;;5.72;0.65;;;0.80;99.90;;;;;;7404173;19;19948;-77
2023/03/15 07:22:25;;;;;;;1.38;0.40;;;1.60;99.90;;;;;;7406715;19;20249;-77
2023/03/15 07:24:59;;;;;;;3.72;0.70;;;1.30;99.90;;;;;;7404420;19;20312;-77
2023/03/15 07:27:29;;;;;;;4.65;1.00;;;2.00;99.90;;;;;;7408224;19;19982;-77
2023/03/15 07:29:58;;;;;;;6.50;0.98;;;1.40;99.90;;;;;;7403706;19;19911;-77
2023/03/15 07:32:27;;;;;;;3.63;1.05;;;2.00;99.90;;;;;;7404276;19;19918;-74
2023/03/15 07:34:59;;;;;;;4.18;0.73;;;0.90;99.90;;;;;;7403542;19;19932;-78
2023/03/15 07:37:28;;;;;;;;;;;1.70;99.90;;;;;;7409950;19;19918;-78
2023/03/15 07:40:08;;;;;;;4.63;0.95;;;0.90;99.90;;;;;;7403273;19;19919;-78
2023/03/15 07:42:37;;;;;;;8.52;0.90;;;2.50;99.90;;;;;;7402976;19;19910;-75
2023/03/15 07:45:10;;;;;;;;;;;1.80;99.90;;;;;;7406032;19;20348;-78
2023/03/15 07:47:39;;;;;;;8.27;1.10;;;;;;;;;;7404139;19;19922;-78
2023/03/15 07:50:11;;;;;;;4.53;0.60;;;1.00;99.90;;;;;;7399636;19;19923;-78
2023/03/15 07:52:40;;;;;;;5.47;1.05;;;1.80;99.90;;;;;;7406675;19;19918;-77
2023/03/15 07:55:12;;;;;;;4.88;0.77;;;2.30;99.90;;;;;;7403397;19;19946;-77
2023/03/15 07:57:42;;;;;;;5.75;0.80;;;;;;;;;;7405700;19;20360;-78
2023/03/15 08:00:13;;;;;;;8.27;0.90;;;1.30;99.90;;;;;;7403459;19;19922;-78
2023/03/15 08:02:44;;;;;;;5.88;0.73;;;2.10;99.90;;;;;;7407164;19;19918;-78
2023/03/15 08:05:13;;;;;;;4.15;0.75;;;1.60;99.90;;;;;;7404098;19;19952;-76
2023/03/15 08:07:42;;;;;;;5.88;0.90;;;1.40;99.90;;;;;;7402450;19;19914;-76
2023/03/15 08:10:14;;;;;;;3.97;0.60;;;2.90;99.90;;;;;;7402647;19;19933;-76
2023/03/15 08:12:44;;;;;;;5.10;0.85;;;2.80;99.90;;;;;;7402359;19;20626;-76
2023/03/15 08:15:17;;;;;;;9.80;1.08;;;1.80;99.90;;;;;;7404898;19;19915;-76
2023/03/15 08:17:48;;;;;;;4.18;0.50;;;3.00;99.90;;;;;;7400723;19;19932;-76
2023/03/15 08:20:18;;;;;;;2.65;0.65;;;2.60;99.90;;;;;;7402680;19;19922;-76
2023/03/15 08:22:48;;;;;;;7.50;0.73;;;1.90;99.90;;;;;;7402931;19;19954;-76
2023/03/15 08:25:22;;;;;;;2.83;0.70;;;3.40;99.90;;;;;;7401989;19;20249;-76
2023/03/15 08:27:51;;;;;;;6.55;1.10;;;1.70;99.90;;;;;;7406189;19;19950;-76
2023/03/15 08:30:22;;;;;;;5.25;0.85;;;2.60;99.90;;;;;;7403071;19;19922;-76
2023/03/15 08:32:52;;;;;;;3.20;1.58;;;2.70;99.90;;;;;;7405631;19;20343;-78
2023/03/15 08:35:22;;;;;;;8.70;1.23;;;2.80;99.90;;;;;;7403322;19;20281;-77
2023/03/15 08:37:52;;;;;;;6.43;0.93;;;3.50;99.90;;;;;;7401925;19;19919;-76
2023/03/15 08:40:26;;;;;;;2.90;0.65;;;3.60;99.90;;;;;;7401069;19;19917;-76
2023/03/15 08:42:57;;;;;;;4.68;0.80;;;2.30;99.90;;;;;;7406092;19;19918;-77
2023/03/15 08:45:26;;;;;;;3.42;0.75;;;2.50;99.90;;;;;;7405539;19;20305;-76
2023/03/15 08:47:58;;;;;;;4.82;1.00;;;3.50;99.90;;;;;;7402480;19;19927;-75
2023/03/15 08:50:30;;;;;;;4.95;0.88;;;3.60;99.90;;;;;;7404994;19;20370;-76
2023/03/15 08:52:59;;;;;;;5.68;1.15;;;2.80;99.90;;;;;;7401866;19;19919;-76
2023/03/15 08:55:31;;;;;;;4.28;1.02;;;3.20;99.90;;;;;;7403653;19;19942;-76
2023/03/15 08:58:00;;;;;;;2.47;0.90;;;4.10;99.90;;;;;;7403895;19;19922;-76
2023/03/15 09:00:29;;;;;;;8.32;1.38;;;3.80;99.90;;;;;;7402775;19;20335;-75
2023/03/15 09:02:58;;;;;;;3.90;0.85;;;3.30;99.90;;;;;;7401795;19;19922;-76
2023/03/15 09:05:27;;;;;;;5.03;0.70;;;3.00;99.90;;;;;;7404301;19;19923;-76
2023/03/15 09:07:57;;;;;;;7.32;1.05;;;3.50;99.90;;;;;;7403548;19;19990;-76
2023/03/15 09:10:26;;;;;;;5.22;0.63;;;4.20;99.90;;;;;;7404023;19;19997;-76
2023/03/15 09:12:58;;;;;;;4.18;0.90;;;4.10;99.90;;;;;;7402973;19;19918;-77
2023/03/15 09:15:27;;;;;;;6.47;1.15;;;4.10;99.90;;;;;;7402646;19;19938;-76
2023/03/15 09:17:56;;;;;;;6.13;1.35;;;3.60;99.90;;;;;;7398880;19;19919;-77
2023/03/15 09:20:27;;;;;;;2.75;0.75;;;4.20;99.90;;;;;;7403727;19;19935;-76
2023/03/15 09:22:57;;;;;;;6.63;1.20;;;4.50;99.90;;;;;;7404409;19;20005;-77
2023/03/15 09:25:27;;;;;;;9.77;1.48;;;4.80;99.90;;;;;;7407971;19;19929;-76
2023/03/15 09:27:59;;;;;;;2.28;0.65;;;4.30;99.90;;;;;;7411096;19;19919;-77
2023/03/15 09:30:27;;;;;;;4.65;0.77;;;3.70;99.90;;;;;;7407583;19;19927;-77
2023/03/15 09:32:56;;;;;;;6.18;1.45;;;3.60;99.90;;;;;;7411188;19;19915;-77
2023/03/15 09:35:25;;;;;;;7.10;1.23;;;3.80;99.90;;;;;;7406513;19;19943;-77
2023/03/15 09:37:54;;;;;;;4.07;0.65;;;3.70;99.90;;;;;;7405869;19;19919;-77
2023/03/15 09:40:27;;;;;;;5.95;0.90;;;3.50;99.90;;;;;;7406076;19;19927;-77
2023/03/15 09:43:05;;;;;;;5.15;0.73;;;4.90;99.90;;;;;;7406020;19;19982;-76
2023/03/15 09:45:50;;;;;;;2.20;0.40;;;4.40;99.90;;;;;;7405611;19;19922;-76
2023/03/15 09:48:26;;;;;;;7.15;1.08;;;5.00;99.90;;;;;;7405812;19;20344;-76
2023/03/15 09:51:00;;;;;;;2.42;0.88;;;4.10;99.90;;;;;;7404672;19;19919;-76
2023/03/15 09:53:34;;;;;;;2.55;0.70;;;4.50;99.90;;;;;;7405417;19;19954;-76
2023/03/15 09:56:05;;;;;;;2.55;0.40;;;4.70;99.90;;;;;;7405698;19;19926;-77
2023/03/15 09:58:40;;;;;;;3.67;1.10;;;4.80;99.90;;;;;;7407589;19;19918;-77
2023/03/15 10:01:12;;;;;;;2.78;0.77;;;5.10;99.90;;;;;;7404283;19;19931;-77
2023/03/15 10:03:45;;;;;;;;;;;5.30;99.90;;;;;;7408125;19;19926;-76
2023/03/15 10:06:18;;;;;;;4.68;0.55;;;4.60;99.90;;;;;;7405839;19;20309;-77
2023/03/15 10:08:48;;;;;;;3.72;0.60;;;4.60;99.90;;;;;;7405315;19;19928;-77
2023/03/15 10:11:25;;;;;;;8.68;0.98;;;5.90;99.90;;;;;;7405319;19;20348;-77
2023/03/15 10:14:09;;;;;;;6.10;0.63;;;5.20;99.90;;;;;;7409415;19;20407;-77
2023/03/15 10:16:43;;;;;;;3.85;0.90;;;4.80;99.90;;;;;;7404613;19;19922;-77
2023/03/15 10:19:26;;;;;;;4.68;0.55;;;5.80;99.90;;;;;;7405418;19;19934;-77
2023/03/15 10:21:58;;;;;;;;;;;5.20;99.90;;;;;;7405712;19;19929;-77
2023/03/15 10:24:35;;;;;;;4.78;0.60;;;5.40;99.90;;;;;;7407489;19;20288;-77
2023/03/15 10:27:17;;;;;;;4.28;1.13;;;6.20;99.90;;;;;;7405017;19;19914;-77
2023/03/15 10:29:50;;;;;;;5.30;0.85;;;5.30;99.90;;;;;;7404457;19;19926;-77
2023/03/15 10:32:22;;;;;;;3.97;0.60;;;5.50;99.90;;;;;;7404649;19;19915;-77
2023/03/15 10:34:53;;;;;;;4.47;1.10;;;4.70;99.90;;;;;;7404209;19;19922;-76
2023/03/15 10:37:23;;;;;;;4.22;1.10;;;5.70;99.90;;;;;;7405938;19;19918;-76
2023/03/15 10:39:57;;;;;;;6.20;1.05;;;5.80;99.90;;;;;;7408264;19;19926;-77
2023/03/15 10:42:30;;;;;;;3.17;0.63;;;5.90;99.90;;;;;;7401678;19;19919;-77
2023/03/15 10:45:18;;;;;;;5.78;1.17;;;5.90;99.90;;;;;;7406662;19;19926;-77
2023/03/15 10:47:48;;;;;;;3.45;0.45;;;5.60;99.90;;;;;;7403066;19;19922;-77
2023/03/15 10:50:26;;;;;;;4.68;1.08;;;5.90;99.90;;;;;;7405437;19;19940;-77
2023/03/15 10:52:58;;;;;;;4.18;0.63;;;5.90;99.90;;;;;;7405248;19;19914;-77
2023/03/15 10:55:34;;;;;;;3.80;0.77;;;5.90;99.90;;;;;;7406154;19;20297;-77
2023/03/15 10:58:20;;;;;;;3.78;0.50;;;6.10;99.90;;;;;;7403970;19;19926;-79
2023/03/15 11:01:02;;;;;;;5.03;0.52;;;6.00;99.90;;;;;;7386670;19;19918;-76
2023/03/15 11:03:31;;;;;;;4.10;1.25;;;6.20;99.90;;;;;;7387208;19;20368;-75
2023/03/15 11:06:05;;;;;;;6.55;1.80;;;6.50;99.90;;;;;;7404606;19;19924;-73
2023/03/15 11:08:40;;;;;;;6.00;1.35;;;5.90;99.90;;;;;;7405293;19;19918;-73
2023/03/15 11:11:10;;;;;;;3.53;0.68;;;6.90;99.90;;;;;;7403247;19;19947;-74
2023/03/15 11:13:41;;;;;;;4.57;1.35;;;6.00;99.90;;;;;;7405345;19;19958;-71
2023/03/15 11:16:23;;;;;;;3.17;0.65;;;6.10;99.90;;;;;;7402313;19;19952;-71
2023/03/15 11:19:03;;;;;;;9.18;1.25;;;5.80;99.90;;;;;;7402099;19;19926;-73
2023/03/15 11:21:35;;;;;;;4.07;0.80;;;6.00;99.90;;;;;;7402502;19;19922;-74
2023/03/15 11:24:05;;;;;;;;;;;5.90;99.90;;;;;;7407634;19;19986;-75
2023/03/15 11:26:38;;;;;;;2.88;0.65;;;7.30;99.90;;;;;;7404917;19;19981;-73
2023/03/15 11:29:16;;;;;;;3.15;0.90;;;6.20;99.90;;;;;;7403790;19;19921;-74
2023/03/15 11:32:03;;;;;;;3.33;0.75;;;6.30;99.90;;;;;;7404446;19;19927;-73
2023/03/15 11:35:00;;;;;;;2.53;0.68;;;6.50;99.90;;;;;;7403772;19;19978;-72
2023/03/15 11:37:34;;;;;;;3.63;0.63;;;6.70;99.90;;;;;;7406312;19;20343;-81
2023/03/15 11:40:08;;;;;;;2.88;0.60;;;6.60;99.90;;;;;;7403644;19;19922;-75
2023/03/15 11:42:43;;;;;;;2.25;0.60;;;6.60;99.90;;;;;;7400845;19;19943;-75
2023/03/15 11:45:20;;;;;;;4.47;0.70;;;6.70;99.90;;;;;;7403530;19;19923;-75
2023/03/15 11:47:56;;;;;;;5.55;0.93;;;6.90;99.90;;;;;;7401685;19;20272;-75
2023/03/15 11:50:25;;;;;;;3.50;1.05;;;7.80;99.90;;;;;;7402242;19;19918;-76
2023/03/15 11:52:54;;;;;;;6.75;1.08;;;7.00;99.90;;;;;;7403185;19;19921;-76
2023/03/15 11:55:27;;;;;;;4.60;0.73;;;7.20;99.90;;;;;;7401558;19;19986;-75
2023/03/15 11:57:58;;;;;;;2.72;0.70;;;7.10;99.90;;;;;;7403642;19;19922;-76
2023/03/15 12:00:57;;;;;;;2.45;0.80;;;6.90;99.90;;;;;;7403111;19;19919;-75
2023/03/15 12:03:35;;;;;;;3.13;0.65;;;7.20;99.90;;;;;;7402166;19;19919;-76
2023/03/15 12:06:26;;;;;;;5.22;1.08;;;6.90;99.90;;;;;;7402605;19;19946;-76
2023/03/15 12:08:58;;;;;;;3.95;1.00;;;6.90;99.90;;;;;;7400925;19;19990;-76
2023/03/15 12:11:42;;;;;;;7.40;1.00;;;7.70;99.90;;;;;;7401990;19;19939;-76
2023/03/15 12:14:31;;;;;;;3.72;0.98;;;7.10;99.90;;;;;;7400830;19;19922;-75
2023/03/15 12:17:35;;;;;;;5.78;0.82;;;7.30;99.90;;;;;;7400815;19;19930;-75
2023/03/15 12:20:19;;;;;;;2.53;0.60;;;7.50;99.90;;;;;;7400443;19;19922;-77
2023/03/15 12:22:53;;;;;;;3.55;0.90;;;7.30;99.90;;;;;;7399516;19;19918;-76
2023/03/15 12:25:27;;;;;;;5.18;0.90;;;7.30;99.90;;;;;;7404042;19;19930;-76
2023/03/15 12:27:58;;;;;;;4.68;0.63;;;7.60;99.90;;;;;;7400311;19;19922;-78
2023/03/15 12:30:32;;;;;;;3.63;0.60;;;7.80;99.90;;;;;;7399546;19;19932;-77
2023/03/15 12:33:03;;;;;;;2.50;0.73;;;7.80;99.90;;;;;;7404322;19;19922;-77
2023/03/15 12:35:41;;;;;;;3.92;0.93;;;7.90;99.90;;;;;;7404520;19;19926;-77
2023/03/15 12:38:13;;;;;;;;;;;7.80;99.90;;;;;;7405151;19;19929;-78
2023/03/15 12:40:54;;;;;;;1.98;0.50;;;7.80;99.90;;;;;;7400896;19;19922;-78
2023/03/15 12:43:47;;;;;;;3.35;0.70;;;7.70;99.90;;;;;;7398799;19;19955;-77
2023/03/15 12:46:46;;;;;;;3.22;0.95;;;7.70;99.90;;;;;;7400925;19;20315;-78
2023/03/15 12:49:29;;;;;;;5.43;0.70;;;7.70;99.90;;;;;;7403367;19;19998;-78
2023/03/15 12:52:03;;;;;;;2.55;0.50;;;7.80;99.90;;;;;;7401370;19;20422;-78
2023/03/15 12:54:48;;;;;;;3.03;1.20;;;7.90;99.90;;;;;;7397786;19;20491;-78
2023/03/15 12:57:21;;;;;;;2.05;0.60;;;7.90;99.90;;;;;;7403576;19;20332;-78
2023/03/15 12:59:56;;;;;;;4.18;0.90;;;8.20;99.90;;;;;;7400233;19;19959;-78
2023/03/15 13:02:33;;;;;;;1.98;0.50;;;8.20;99.90;;;;;;7401389;19;19930;-78
2023/03/15 13:05:09;;;;;;;7.78;0.90;;;7.90;99.90;;;;;;7403886;19;19923;-77
2023/03/15 13:07:57;;;;;;;2.80;0.65;;;8.00;99.90;;;;;;7402305;19;20367;-78
2023/03/15 13:10:38;;;;;;;4.35;0.60;;;9.20;99.90;;;;;;7401258;19;20341;-78
2023/03/15 13:13:22;;;;;;;1.73;0.50;;;7.90;99.90;;;;;;7400041;19;19919;-78
2023/03/15 13:15:55;;;;;;;;;;;8.10;99.90;;;;;;7404283;19;19922;-78
2023/03/15 13:18:25;;;;;;;2.53;0.52;;;8.30;99.90;;;;;;7399374;19;19919;-78
2023/03/15 13:21:11;;;;;;;1.67;0.55;;;8.40;99.90;;;;;;7399511;19;20317;-78
2023/03/15 13:23:46;;;;;;;5.25;1.30;;;8.50;99.90;;;;;;7397823;19;19914;-78
2023/03/15 13:26:25;;;;;;;3.60;0.68;;;8.80;99.90;;;;;;7399351;19;19930;-79
2023/03/15 13:29:01;;;;;;;1.05;0.32;;;9.10;99.90;;;;;;7401578;19;19927;-78
2023/03/15 13:31:31;;;;;;;1.92;0.60;;;8.90;99.90;;;;;;7398836;19;20361;-78
2023/03/15 13:34:12;;;;;;;4.60;1.10;;;9.00;99.90;;;;;;7399302;19;20412;-79